createdAt,value
2023-01-31T00:03:33.925Z,6.27
2023-01-31T00:08:37.009Z,4.77
2023-01-31T00:13:41.124Z,5.21
2023-01-31T00:18:45.701Z,7.01
2023-01-31T00:23:51.310Z,7.90
2023-01-31T00:28:56.753Z,8.29
2023-01-31T00:34:00.935Z,8.48
2023-01-31T00:39:06.888Z,8.47
2023-01-31T00:44:09.998Z,8.60
2023-01-31T00:49:12.997Z,6.92
2023-01-31T00:54:16.218Z,6.29
2023-01-31T00:59:19.411Z,7.10
2023-01-31T01:04:22.650Z,7.49
2023-01-31T01:09:26.042Z,7.82
2023-01-31T01:14:29.143Z,8.04
2023-01-31T01:19:32.525Z,7.89
2023-01-31T01:24:36.279Z,8.06
2023-01-31T01:29:40.356Z,8.02
2023-01-31T01:34:43.413Z,7.59
2023-01-31T01:39:52.012Z,7.72
2023-01-31T01:45:01.375Z,7.86
2023-01-31T01:50:25.631Z,7.79
2023-01-31T01:55:46.432Z,7.82
2023-01-31T02:00:51.371Z,7.72
2023-01-31T02:06:00.229Z,7.79
2023-01-31T02:11:27.386Z,7.37
2023-01-31T02:16:30.720Z,5.50
2023-01-31T02:22:10.361Z,6.36
2023-01-31T02:28:03.027Z,6.98
2023-01-31T02:33:57.237Z,7.38
2023-01-31T02:39:25.278Z,7.50
2023-01-31T02:45:02.013Z,7.46
2023-01-31T02:50:17.981Z,7.54
2023-01-31T02:55:48.271Z,7.69
2023-01-31T03:00:57.301Z,7.88
2023-01-31T03:06:27.284Z,6.94
2023-01-31T03:11:45.715Z,6.64
2023-01-31T03:17:34.085Z,7.44
2023-01-31T03:23:02.277Z,7.77
2023-01-31T03:28:12.949Z,7.86
2023-01-31T03:33:32.733Z,7.13
2023-01-31T03:38:48.867Z,5.53
2023-01-31T03:44:06.926Z,6.52
2023-01-31T03:49:15.288Z,6.95
2023-01-31T03:54:30.853Z,7.11
2023-01-31T03:59:40.226Z,7.36
2023-01-31T04:04:53.547Z,7.27
2023-01-31T04:09:56.861Z,7.35
2023-01-31T04:15:00.097Z,7.26
2023-01-31T04:20:07.058Z,7.46
2023-01-31T04:25:11.401Z,7.43
2023-01-31T04:30:14.816Z,7.33
2023-01-31T04:35:18.576Z,7.20
2023-01-31T04:40:22.279Z,5.73
2023-01-31T04:45:25.547Z,6.71
2023-01-31T04:50:28.601Z,7.22
2023-01-31T04:55:31.805Z,7.26
2023-01-31T05:00:35.265Z,7.47
2023-01-31T05:05:38.817Z,5.67
2023-01-31T05:10:43.205Z,4.40
2023-01-31T05:15:49.686Z,5.85
2023-01-31T05:20:53.150Z,6.71
2023-01-31T05:25:56.973Z,7.27
2023-01-31T05:31:07.143Z,7.53
2023-01-31T05:36:10.893Z,5.49
2023-01-31T05:41:13.978Z,5.17
2023-01-31T05:46:17.387Z,6.56
2023-01-31T05:51:20.495Z,7.27
2023-01-31T05:56:24.418Z,7.62
2023-01-31T06:01:28.618Z,6.41
2023-01-31T06:06:32.085Z,5.70
2023-01-31T06:11:35.168Z,6.63
2023-01-31T06:16:38.429Z,7.15
2023-01-31T06:21:41.595Z,7.46
2023-01-31T06:26:44.853Z,5.74
2023-01-31T06:31:48.142Z,6.09
2023-01-31T06:36:51.359Z,6.88
2023-01-31T06:41:54.423Z,6.96
2023-01-31T06:46:57.630Z,6.96
2023-01-31T06:52:00.868Z,6.93
2023-01-31T06:57:04.048Z,7.12
2023-01-31T07:02:07.079Z,6.02
2023-01-31T07:07:10.163Z,5.72
2023-01-31T07:12:13.286Z,6.66
2023-01-31T07:17:16.574Z,6.71
2023-01-31T07:22:20.208Z,5.78
2023-01-31T07:27:24.635Z,6.56
2023-01-31T07:32:31.663Z,7.04
2023-01-31T07:37:35.553Z,6.28
2023-01-31T07:42:40.062Z,5.64
2023-01-31T07:47:43.316Z,6.30
2023-01-31T07:52:48.312Z,6.66
2023-01-31T07:57:51.376Z,6.86
2023-01-31T08:03:13.406Z,5.61
2023-01-31T08:08:16.750Z,6.37
2023-01-31T08:13:19.926Z,7.11
2023-01-31T08:18:23.031Z,5.72
2023-01-31T08:23:28.188Z,6.22
2023-01-31T08:28:32.805Z,6.68
2023-01-31T08:33:38.554Z,5.58
2023-01-31T08:38:43.003Z,6.70
2023-01-31T08:43:58.341Z,5.61
2023-01-31T08:49:04.974Z,6.04
2023-01-31T08:54:10.074Z,7.33
2023-01-31T08:59:13.195Z,6.09
2023-01-31T09:04:16.282Z,5.47
2023-01-31T09:09:19.619Z,6.69
2023-01-31T09:14:23.005Z,5.69
2023-01-31T09:19:26.135Z,5.99
2023-01-31T09:24:29.942Z,6.66
2023-01-31T09:29:33.622Z,5.55
2023-01-31T09:34:37.071Z,6.78
2023-01-31T09:39:40.280Z,7.19
2023-01-31T09:44:48.312Z,5.58
2023-01-31T09:50:18.991Z,5.91
2023-01-31T09:56:15.743Z,5.98
2023-01-31T10:01:31.821Z,5.50
2023-01-31T10:06:55.040Z,6.43
2023-01-31T10:12:11.235Z,5.28
2023-01-31T10:17:26.016Z,5.45
2023-01-31T10:22:50.941Z,6.80
2023-01-31T10:28:04.059Z,5.65
2023-01-31T10:33:43.049Z,5.44
2023-01-31T10:38:58.821Z,6.32
2023-01-31T10:44:10.926Z,5.42
2023-01-31T10:49:15.511Z,5.29
2023-01-31T10:54:59.039Z,6.72
2023-01-31T11:00:03.334Z,5.83
2023-01-31T11:05:07.278Z,5.25
2023-01-31T11:10:32.238Z,4.96
2023-01-31T11:15:43.299Z,4.70
2023-01-31T11:20:48.347Z,5.67
2023-01-31T11:25:54.050Z,5.79
2023-01-31T11:30:58.682Z,5.00
2023-01-31T11:36:09.755Z,4.60
2023-01-31T11:41:35.291Z,4.92
2023-01-31T11:46:47.905Z,5.87
2023-01-31T11:51:51.844Z,5.17
2023-01-31T11:56:56.681Z,4.93
2023-01-31T12:02:01.884Z,4.72
2023-01-31T12:07:25.252Z,4.55
2023-01-31T12:12:35.944Z,4.46
2023-01-31T12:17:50.062Z,4.36
2023-01-31T12:23:17.564Z,5.23
2023-01-31T12:29:03.450Z,5.68
2023-01-31T12:34:59.031Z,4.97
2023-01-31T12:40:29.536Z,4.68
2023-01-31T12:46:09.806Z,4.55
2023-01-31T12:52:00.261Z,4.49
2023-01-31T12:57:46.273Z,4.60
2023-01-31T13:02:57.028Z,6.71
2023-01-31T13:08:17.862Z,6.35
2023-01-31T13:13:43.278Z,5.39
2023-01-31T13:18:50.954Z,4.82
2023-01-31T13:24:19.289Z,4.51
2023-01-31T13:29:32.430Z,4.46
2023-01-31T13:34:51.823Z,5.96
2023-01-31T13:40:04.346Z,5.37
2023-01-31T13:45:11.464Z,4.66
2023-01-31T13:50:40.264Z,4.28
2023-01-31T13:55:48.045Z,4.01
2023-01-31T14:01:04.307Z,4.75
2023-01-31T14:06:07.390Z,7.11
2023-01-31T14:11:13.678Z,7.67
2023-01-31T14:16:32.349Z,6.06
2023-01-31T14:21:54.412Z,5.03
2023-01-31T14:26:58.527Z,4.43
2023-01-31T14:32:25.923Z,4.06
2023-01-31T14:37:40.372Z,5.62
2023-01-31T14:43:46.224Z,7.53
2023-01-31T14:49:32.689Z,6.31
2023-01-31T14:54:47.870Z,4.88
2023-01-31T14:59:54.046Z,4.16
2023-01-31T15:05:02.064Z,4.83
2023-01-31T15:10:05.697Z,6.82
2023-01-31T15:15:36.652Z,6.21
2023-01-31T15:20:47.652Z,4.75
2023-01-31T15:25:53.476Z,4.41
2023-01-31T15:31:06.600Z,6.17
2023-01-31T15:36:31.697Z,5.69
2023-01-31T15:41:45.108Z,4.45
2023-01-31T15:46:52.201Z,5.48
2023-01-31T15:52:21.155Z,7.32
2023-01-31T15:57:46.243Z,7.45
2023-01-31T16:02:49.936Z,5.52
2023-01-31T16:07:53.175Z,4.40
2023-01-31T16:13:00.961Z,4.02
2023-01-31T16:18:04.608Z,6.85
2023-01-31T16:23:22.769Z,8.85
2023-01-31T16:28:29.855Z,7.34
2023-01-31T16:33:34.676Z,5.29
2023-01-31T16:38:42.986Z,4.19
2023-01-31T16:43:52.170Z,5.89
2023-01-31T16:49:06.214Z,7.40
2023-01-31T16:54:20.258Z,5.69
2023-01-31T16:59:51.916Z,4.73
2023-01-31T17:05:20.960Z,7.35
2023-01-31T17:10:29.465Z,7.75
2023-01-31T17:15:32.855Z,5.49
2023-01-31T17:20:35.955Z,5.28
2023-01-31T17:25:41.139Z,7.61
2023-01-31T17:30:45.688Z,8.14
2023-01-31T17:35:48.965Z,6.06
2023-01-31T17:40:53.338Z,4.53
2023-01-31T17:45:56.709Z,4.16
2023-01-31T17:51:00.678Z,7.29
2023-01-31T17:56:04.766Z,9.20
2023-01-31T18:01:14.421Z,8.46
2023-01-31T18:06:18.747Z,5.93
2023-01-31T18:11:21.975Z,4.38
2023-01-31T18:16:26.936Z,5.11
2023-01-31T18:21:30.436Z,7.13
2023-01-31T18:26:33.693Z,8.12
2023-01-31T18:31:37.286Z,8.53
2023-01-31T18:36:41.500Z,6.74
2023-01-31T18:41:44.907Z,4.73
2023-01-31T18:46:48.145Z,4.48
2023-01-31T18:51:51.632Z,6.49
2023-01-31T18:56:54.853Z,7.72
2023-01-31T19:02:00.176Z,8.40
2023-01-31T19:07:03.929Z,8.74
2023-01-31T19:12:07.370Z,8.00
2023-01-31T19:17:10.540Z,5.65
2023-01-31T19:22:13.807Z,4.44
2023-01-31T19:27:17.062Z,5.96
2023-01-31T19:32:20.403Z,7.28
2023-01-31T19:37:23.592Z,7.97
2023-01-31T19:42:28.374Z,8.22
2023-01-31T19:47:33.582Z,8.24
2023-01-31T19:52:37.726Z,8.18
2023-01-31T19:57:41.023Z,6.37
2023-01-31T20:02:44.967Z,4.51
2023-01-31T20:07:48.772Z,4.57
2023-01-31T20:12:52.057Z,6.40
2023-01-31T20:17:56.332Z,7.29
2023-01-31T20:22:59.739Z,7.93
2023-01-31T20:28:03.352Z,8.02
2023-01-31T20:33:06.592Z,6.62
2023-01-31T20:38:11.541Z,4.63
2023-01-31T20:43:14.652Z,5.30
2023-01-31T20:48:19.410Z,6.90
2023-01-31T20:53:24.617Z,7.66
2023-01-31T20:58:31.526Z,8.90
2023-01-31T21:03:36.027Z,9.40
2023-01-31T21:08:40.796Z,7.11
2023-01-31T21:13:44.215Z,7.13
2023-01-31T21:18:47.312Z,8.66
2023-01-31T21:23:53.188Z,6.81
2023-01-31T21:28:59.672Z,6.06
2023-01-31T21:34:05.955Z,8.19
2023-01-31T21:39:12.949Z,8.92
2023-01-31T21:44:16.370Z,8.87
2023-01-31T21:49:19.579Z,9.17
2023-01-31T21:54:22.682Z,8.46
2023-01-31T21:59:26.514Z,7.82
2023-01-31T22:04:29.705Z,9.36
2023-01-31T22:09:32.813Z,9.53
2023-01-31T22:14:36.123Z,7.11
2023-01-31T22:19:39.343Z,8.34
2023-01-31T22:24:44.290Z,9.88
2023-01-31T22:29:47.399Z,10.01
2023-01-31T22:34:50.598Z,7.59
2023-01-31T22:39:53.807Z,8.30
2023-01-31T22:44:56.843Z,9.43
2023-01-31T22:50:00.038Z,8.18
2023-01-31T22:55:03.138Z,9.02
2023-01-31T23:00:09.574Z,9.54
2023-01-31T23:05:13.949Z,9.02
2023-01-31T23:10:17.380Z,7.35
2023-01-31T23:15:20.671Z,8.71
2023-01-31T23:20:24.230Z,9.74
2023-01-31T23:25:32.526Z,8.42
2023-01-31T23:30:35.764Z,7.70
2023-01-31T23:35:38.929Z,8.41
2023-01-31T23:40:42.239Z,8.59
2023-01-31T23:45:45.481Z,8.43
2023-01-31T23:50:48.566Z,8.25
2023-01-31T23:55:51.663Z,8.19
